Time;durP1;ratioP1;P1;durP2;ratioP2;P2;SDS_P1;SDS_P2;PMS_P1;PMS_P2;Temp;Humidity;BMP_temperature;BMP_pressure;BME280_temperature;BME280_humidity;BME280_pressure;Samples;Min_cycle;Max_cycle;Signal;HPM_P1;HPM_P2
2021/07/26 00:01:32;;;;;;;;;;;;;;;21.29;56.17;101086.55;1896220;76;20116;-61
2021/07/26 00:04:00;;;;;;;;;;;;;;;21.25;56.08;101090.91;1896244;76;20120;-61
2021/07/26 00:06:28;;;;;;;;;;;;;;;21.18;56.45;101084.71;1896228;76;20116;-61
2021/07/26 00:08:56;;;;;;;;;;;;;;;21.14;56.43;101083.25;1896157;76;20128;-62
2021/07/26 00:11:23;;;;;;;;;;;;;;;21.10;56.28;101088.48;1896249;76;20113;-62
2021/07/26 00:13:51;;;;;;;;;;;;;;;21.07;56.34;101091.89;1896212;76;20148;-61
2021/07/26 00:16:19;;;;;;;;;;;;;;;21.03;56.52;101094.45;1896203;76;20146;-61
2021/07/26 00:18:47;;;;;;;;;;;;;;;20.98;57.42;101090.77;1896241;76;20120;-62
2021/07/26 00:21:15;;;;;;;;;;;;;;;20.95;57.36;101092.34;1896120;76;20190;-64
2021/07/26 00:23:43;;;;;;;;;;;;;;;20.91;57.97;101091.72;1896203;76;20370;-62
2021/07/26 00:26:11;;;;;;;;;;;;;;;20.87;59.97;101082.72;1896236;76;20413;-62
2021/07/26 00:28:39;;;;;;;;;;;;;;;20.85;59.17;101087.34;1896143;76;20100;-62
2021/07/26 00:31:07;;;;;;;;;;;;;;;20.79;59.24;101089.52;1896128;76;20116;-62
2021/07/26 00:33:59;;;;;;;;;;;;;;;20.75;60.68;101088.05;1896178;76;20267;-61
2021/07/26 00:36:19;;;;;;;;;;;;;;;20.69;61.47;101089.83;1892950;76;20108;-61
2021/07/26 00:38:47;;;;;;;;;;;;;;;20.68;60.56;101085.47;1896256;76;20118;-61
2021/07/26 00:41:16;;;;;;;;;;;;;;;20.67;60.51;101082.91;1896228;76;20159;-62
2021/07/26 00:43:44;;;;;;;;;;;;;;;20.61;61.36;101088.23;1896235;76;20120;-62
2021/07/26 00:46:12;;;;;;;;;;;;;;;20.52;61.85;101084.89;1896186;76;20116;-61
2021/07/26 00:48:39;;;;;;;;;;;;;;;20.47;62.29;101079.03;1896169;76;20178;-62
2021/07/26 00:51:07;;;;;;;;;;;;;;;20.48;61.42;101080.75;1896219;76;20112;-62
2021/07/26 00:53:35;;;;;;;;;;;;;;;20.48;61.22;101087.44;1896149;76;20167;-62
2021/07/26 00:56:03;;;;;;;;;;;;;;;20.40;61.89;101085.34;1896191;76;20116;-61
2021/07/26 00:58:31;;;;;;;;;;;;;;;20.36;62.88;101091.87;1896205;76;20108;-61
2021/07/26 01:01:00;;;;;;;;;;;;;;;20.33;62.93;101088.95;1896083;76;20104;-62
2021/07/26 01:03:28;;;;;;;;;;;;;;;20.32;62.48;101088.56;1896427;76;20414;-61
2021/07/26 01:05:56;;;;;;;;;;;;;;;20.34;62.04;101093.80;1896190;76;20104;-61
2021/07/26 01:08:24;;;;;;;;;;;;;;;20.28;62.35;101091.59;1896184;76;20117;-61
2021/07/26 01:10:52;;;;;;;;;;;;;;;20.24;62.05;101096.32;1896189;76;20146;-61
2021/07/26 01:13:21;;;;;;;;;;;;;;;20.20;61.71;101097.52;1896108;76;20116;-62
2021/07/26 01:15:49;;;;;;;;;;;;;;;20.17;61.67;101084.37;1896249;76;20433;-61
2021/07/26 01:18:27;;;;;;;;;;;;;;;20.13;62.24;101090.92;1896155;76;20104;-62
2021/07/26 01:20:59;;;;;;;;;;;;;;;20.03;62.48;101084.91;1896173;76;20158;-63
2021/07/26 01:23:28;;;;;;;;;;;;;;;20.00;62.14;101082.45;1896287;76;20390;-63
2021/07/26 01:25:57;;;;;;;;;;;;;;;20.00;62.36;101090.47;1896087;76;20151;-63
2021/07/26 01:28:26;;;;;;;;;;;;;;;19.98;62.75;101092.90;1896155;76;20147;-63
2021/07/26 01:30:55;;;;;;;;;;;;;;;19.98;63.60;101098.25;1895500;76;20108;-62
2021/07/26 01:33:23;;;;;;;;;;;;;;;19.97;63.26;101097.37;1889589;76;20398;-63
2021/07/26 01:35:56;;;;;;;;;;;;;;;19.97;62.88;101092.52;1889523;76;20163;-62
2021/07/26 01:38:21;;;;;;;;;;;;;;;19.94;62.46;101093.61;1888991;76;20145;-64
2021/07/26 01:41:01;;;;;;;;;;;;;;;19.92;62.48;101094.66;1889716;76;20146;-62
2021/07/26 01:43:24;;;;;;;;;;;;;;;19.90;62.62;101093.47;1888912;76;20147;-62
2021/07/26 01:46:05;;;;;;;;;;;;;;;19.86;62.51;101094.63;1889695;76;20105;-62
2021/07/26 01:48:37;;;;;;;;;;;;;;;19.82;62.28;101091.33;1889731;76;20115;-62
2021/07/26 01:51:10;;;;;;;;;;;;;;;19.79;62.22;101090.69;1889481;76;20206;-63
2021/07/26 01:53:37;;;;;;;;;;;;;;;19.78;62.82;101090.34;1889633;76;20101;-62
2021/07/26 01:56:05;;;;;;;;;;;;;;;19.74;63.10;101098.21;1889615;76;20163;-62
2021/07/26 01:58:33;;;;;;;;;;;;;;;19.68;62.74;101100.31;1889646;76;20116;-62
2021/07/26 02:01:01;;;;;;;;;;;;;;;19.67;64.05;101099.93;1889655;76;20117;-62
2021/07/26 02:03:30;;;;;;;;;;;;;;;19.72;63.74;101098.77;1889612;76;20116;-63
2021/07/26 02:05:58;;;;;;;;;;;;;;;19.72;63.24;101104.95;1889729;76;20397;-62
2021/07/26 02:08:26;;;;;;;;;;;;;;;19.71;63.17;101103.23;1889666;76;20171;-62
2021/07/26 02:10:54;;;;;;;;;;;;;;;19.70;63.44;101099.34;1889685;76;20116;-62
2021/07/26 02:13:21;;;;;;;;;;;;;;;19.68;63.29;101102.98;1889673;76;20120;-62
2021/07/26 02:15:49;;;;;;;;;;;;;;;19.69;63.05;101103.83;1889573;76;20151;-63
2021/07/26 02:18:17;;;;;;;;;;;;;;;19.71;63.05;101102.39;1889674;76;20112;-62
2021/07/26 02:20:45;;;;;;;;;;;;;;;19.72;62.86;101108.13;1889642;75;20112;-62
2021/07/26 02:23:13;;;;;;;;;;;;;;;19.73;63.69;101105.84;1889680;76;20116;-62
2021/07/26 02:25:41;;;;;;;;;;;;;;;19.74;64.19;101119.09;1889650;76;20117;-62
2021/07/26 02:28:09;;;;;;;;;;;;;;;19.78;64.62;101118.39;1889679;76;20147;-62
2021/07/26 02:30:37;;;;;;;;;;;;;;;19.81;64.99;101130.20;1889599;76;20108;-62
2021/07/26 02:33:05;;;;;;;;;;;;;;;19.91;64.71;101127.71;1894366;76;20146;-62
2021/07/26 02:35:32;;;;;;;;;;;;;;;20.00;65.09;101126.55;1896166;76;20108;-62
2021/07/26 02:38:01;;;;;;;;;;;;;;;20.13;65.20;101121.17;1896125;76;20374;-62
2021/07/26 02:40:28;;;;;;;;;;;;;;;20.30;64.62;101121.26;1896157;76;20124;-63
2021/07/26 02:42:57;;;;;;;;;;;;;;;20.43;64.35;101114.52;1896146;76;20160;-63
2021/07/26 02:45:25;;;;;;;;;;;;;;;20.56;64.20;101120.64;1896167;76;20104;-63
2021/07/26 02:47:53;;;;;;;;;;;;;;;20.69;64.08;101117.09;1896136;76;20116;-63
2021/07/26 02:50:23;;;;;;;;;;;;;;;20.82;63.85;101117.85;1896194;76;20116;-63
2021/07/26 02:52:51;;;;;;;;;;;;;;;20.92;63.57;101122.03;1896244;76;20375;-63
2021/07/26 02:55:18;;;;;;;;;;;;;;;21.05;63.38;101123.28;1896126;76;20116;-63
2021/07/26 02:57:47;;;;;;;;;;;;;;;21.17;63.54;101124.53;1896046;76;20159;-63
2021/07/26 03:00:14;;;;;;;;;;;;;;;21.31;63.39;101122.59;1896167;76;20116;-63
2021/07/26 03:02:42;;;;;;;;;;;;;;;21.56;63.13;101122.39;1896147;76;20120;-63
2021/07/26 03:05:10;;;;;;;;;;;;;;;21.87;62.58;101117.73;1896162;76;20112;-62
2021/07/26 03:07:38;;;;;;;;;;;;;;;22.19;62.14;101123.16;1896174;76;20120;-62
2021/07/26 03:10:06;;;;;;;;;;;;;;;22.39;61.94;101120.68;1896058;76;20211;-63
2021/07/26 03:12:34;;;;;;;;;;;;;;;22.54;61.73;101126.13;1896167;76;20210;-62
2021/07/26 03:15:01;;;;;;;;;;;;;;;22.66;61.71;101126.42;1896220;76;20116;-62
2021/07/26 03:17:29;;;;;;;;;;;;;;;23.00;61.20;101128.95;1896190;76;20175;-62
2021/07/26 03:19:57;;;;;;;;;;;;;;;23.15;61.08;101136.68;1896150;76;20104;-62
2021/07/26 03:22:43;;;;;;;;;;;;;;;23.12;61.13;101127.06;1896148;76;20120;-62
2021/07/26 03:25:12;;;;;;;;;;;;;;;23.15;61.23;101133.99;1896140;76;20124;-62
2021/07/26 03:27:40;;;;;;;;;;;;;;;23.19;61.44;101134.95;1896151;76;20116;-62
2021/07/26 03:30:09;;;;;;;;;;;;;;;23.25;61.54;101138.95;1896232;76;20421;-63
2021/07/26 03:32:36;;;;;;;;;;;;;;;23.32;61.51;101140.12;1894221;75;20155;-63
2021/07/26 03:35:08;;;;;;;;;;;;;;;23.38;61.28;101135.55;1889541;76;20147;-66
2021/07/26 03:37:35;;;;;;;;;;;;;;;23.43;60.99;101139.19;1889655;76;20163;-63
2021/07/26 03:40:04;;;;;;;;;;;;;;;23.52;60.84;101135.70;1889676;76;20112;-63
2021/07/26 03:42:40;;;;;;;;;;;;;;;23.61;60.75;101140.27;1889732;76;20444;-63
2021/07/26 03:45:09;;;;;;;;;;;;;;;23.71;60.26;101138.95;1889633;76;20410;-63
2021/07/26 03:47:38;;;;;;;;;;;;;;;23.77;59.99;101137.55;1889604;76;20144;-65
2021/07/26 03:50:07;;;;;;;;;;;;;;;23.95;59.85;101135.10;1889624;76;20485;-64
2021/07/26 03:52:44;;;;;;;;;;;;;;;24.16;59.77;101137.69;1889822;75;20104;-63
2021/07/26 03:55:13;;;;;;;;;;;;;;;24.37;59.64;101140.28;1889581;76;20112;-63
2021/07/26 03:57:41;;;;;;;;;;;;;;;24.53;59.41;101140.62;1889614;75;20120;-63
2021/07/26 04:00:11;;;;;;;;;;;;;;;24.63;58.94;101138.76;1889660;76;20151;-64
2021/07/26 04:02:42;;;;;;;;;;;;;;;24.78;58.54;101135.64;1889580;75;20120;-64
2021/07/26 04:05:23;;;;;;;;;;;;;;;24.88;58.03;101141.88;1889626;76;20124;-63
2021/07/26 04:07:48;;;;;;;;;;;;;;;24.89;57.65;101138.17;1889437;76;20164;-64
2021/07/26 04:10:17;;;;;;;;;;;;;;;24.98;57.27;101138.66;1889615;76;20445;-64
2021/07/26 04:12:49;;;;;;;;;;;;;;;25.17;56.99;101139.11;1889519;76;20120;-64
2021/07/26 04:15:15;;;;;;;;;;;;;;;25.39;56.37;101141.98;1889533;76;20112;-64
2021/07/26 04:17:43;;;;;;;;;;;;;;;25.58;56.02;101141.56;1889621;76;20147;-64
2021/07/26 04:20:11;;;;;;;;;;;;;;;25.76;55.50;101138.94;1889603;76;20112;-64
2021/07/26 04:22:39;;;;;;;;;;;;;;;25.96;54.33;101145.13;1889670;76;20120;-64
2021/07/26 04:25:07;;;;;;;;;;;;;;;26.02;53.24;101140.46;1889692;75;20175;-64
2021/07/26 04:27:36;;;;;;;;;;;;;;;26.13;53.19;101140.75;1889574;76;20476;-64
2021/07/26 04:30:09;;;;;;;;;;;;;;;26.28;53.00;101137.03;1889668;76;20151;-64
2021/07/26 04:32:42;;;;;;;;;;;;;;;26.42;52.83;101133.80;1888748;75;20149;-64
2021/07/26 04:35:12;;;;;;;;;;;;;;;26.61;52.36;101133.33;1889497;76;20147;-64
2021/07/26 04:37:40;;;;;;;;;;;;;;;26.77;52.05;101137.02;1889478;76;20162;-64
2021/07/26 04:40:11;;;;;;;;;;;;;;;27.02;52.18;101133.17;1889637;76;20112;-64
2021/07/26 04:42:39;;;;;;;;;;;;;;;27.19;51.86;101126.02;1889571;76;20129;-64
2021/07/26 04:45:08;;;;;;;;;;;;;;;27.24;51.55;101129.58;1889471;76;20163;-63
2021/07/26 04:47:36;;;;;;;;;;;;;;;27.31;50.84;101132.86;1889661;75;20121;-64
2021/07/26 04:50:05;;;;;;;;;;;;;;;27.33;50.20;101134.92;1889543;76;20104;-63
2021/07/26 04:52:34;;;;;;;;;;;;;;;27.44;50.07;101127.53;1889459;75;20151;-64
2021/07/26 04:55:02;;;;;;;;;;;;;;;27.56;49.86;101128.95;1888856;76;20136;-64
2021/07/26 04:57:30;;;;;;;;;;;;;;;27.47;49.63;101127.22;1889517;76;20147;-64
2021/07/26 05:00:03;;;;;;;;;;;;;;;27.46;49.76;101128.21;1889556;75;20147;-64
2021/07/26 05:02:30;;;;;;;;;;;;;;;27.39;49.42;101127.16;1888958;76;20202;-64
2021/07/26 05:05:01;;;;;;;;;;;;;;;27.35;49.74;101127.98;1889504;76;20112;-64
2021/07/26 05:07:29;;;;;;;;;;;;;;;27.64;49.62;101131.69;1889472;76;20438;-63
2021/07/26 05:09:57;;;;;;;;;;;;;;;27.95;49.09;101135.22;1889618;76;20148;-64
2021/07/26 05:12:25;;;;;;;;;;;;;;;28.18;48.71;101135.44;1889496;76;20158;-64
2021/07/26 05:14:54;;;;;;;;;;;;;;;28.47;48.76;101135.50;1888912;76;20141;-63
2021/07/26 05:17:26;;;;;;;;;;;;;;;28.58;47.97;101137.07;1889473;76;20117;-64
2021/07/26 05:19:55;;;;;;;;;;;;;;;28.32;48.27;101138.02;1889660;76;20112;-64
2021/07/26 05:22:27;;;;;;;;;;;;;;;28.53;47.62;101132.66;1889737;76;20116;-64
2021/07/26 05:25:01;;;;;;;;;;;;;;;28.41;47.29;101133.47;1888798;76;20144;-64
2021/07/26 05:27:29;;;;;;;;;;;;;;;28.00;47.59;101130.17;1890036;76;20109;-64
2021/07/26 05:30:00;;;;;;;;;;;;;;;27.85;48.30;101123.64;1889586;76;20167;-64
2021/07/26 05:32:28;;;;;;;;;;;;;;;28.17;48.29;101124.29;1889678;76;20151;-64
2021/07/26 05:34:56;;;;;;;;;;;;;;;28.29;48.07;101126.16;1889561;75;20120;-64
2021/07/26 05:37:24;;;;;;;;;;;;;;;28.44;48.17;101125.86;1889640;76;20125;-64
2021/07/26 05:39:52;;;;;;;;;;;;;;;28.69;47.84;101117.77;1889672;76;20104;-64
2021/07/26 05:42:20;;;;;;;;;;;;;;;28.96;46.96;101122.51;1889622;75;20124;-64
2021/07/26 05:44:48;;;;;;;;;;;;;;;29.19;46.94;101122.14;1889700;76;20183;-64
2021/07/26 05:47:16;;;;;;;;;;;;;;;29.32;46.81;101120.76;1889797;76;20121;-64
2021/07/26 05:49:44;;;;;;;;;;;;;;;29.50;46.21;101124.61;1889708;76;20104;-64
2021/07/26 05:52:11;;;;;;;;;;;;;;;29.51;45.93;101126.28;1889714;76;20116;-64
2021/07/26 05:54:39;;;;;;;;;;;;;;;29.49;46.05;101129.69;1889696;76;20116;-64
2021/07/26 05:57:11;;;;;;;;;;;;;;;29.69;46.21;101122.82;1889666;76;20199;-64
2021/07/26 05:59:39;;;;;;;;;;;;;;;29.87;45.67;101125.84;1889685;76;20116;-64
2021/07/26 06:02:07;;;;;;;;;;;;;;;29.85;45.60;101121.94;1889682;76;20191;-64
2021/07/26 06:04:35;;;;;;;;;;;;;;;29.99;45.38;101115.77;1889799;75;20125;-64
2021/07/26 06:07:03;;;;;;;;;;;;;;;30.15;45.46;101108.02;1889675;76;20116;-64
2021/07/26 06:09:31;;;;;;;;;;;;;;;30.57;45.44;101105.36;1889627;76;20132;-64
2021/07/26 06:11:59;;;;;;;;;;;;;;;30.83;44.56;101106.00;1889691;76;20116;-64
2021/07/26 06:14:27;;;;;;;;;;;;;;;30.96;43.94;101103.52;1889651;76;20202;-64
2021/07/26 06:16:55;;;;;;;;;;;;;;;30.92;43.81;101104.92;1889738;76;20096;-64
2021/07/26 06:19:23;;;;;;;;;;;;;;;30.97;43.37;101105.22;1889658;76;20125;-64
2021/07/26 06:21:52;;;;;;;;;;;;;;;30.91;43.67;101103.22;1889599;76;20116;-65
2021/07/26 06:24:21;;;;;;;;;;;;;;;31.06;43.42;101101.39;1889630;76;20371;-64
2021/07/26 06:26:49;;;;;;;;;;;;;;;31.26;43.29;101100.81;1889591;76;20125;-64
2021/07/26 06:29:17;;;;;;;;;;;;;;;31.32;43.30;101104.16;1889647;76;20151;-64
2021/07/26 06:31:46;;;;;;;;;;;;;;;31.44;42.90;101109.44;1889649;76;20151;-63
2021/07/26 06:34:14;;;;;;;;;;;;;;;31.53;42.70;101094.73;1889588;76;20116;-64
2021/07/26 06:36:42;;;;;;;;;;;;;;;31.51;42.55;101109.58;1889527;76;20120;-64
2021/07/26 06:39:10;;;;;;;;;;;;;;;31.57;42.68;101094.36;1889659;76;20108;-64
2021/07/26 06:41:38;;;;;;;;;;;;;;;31.65;42.69;101092.88;1889669;76;20120;-64
2021/07/26 06:44:06;;;;;;;;;;;;;;;31.61;42.51;101098.39;1889681;76;20122;-64
2021/07/26 06:46:34;;;;;;;;;;;;;;;31.72;42.83;101101.48;1889699;76;20121;-64
2021/07/26 06:49:02;;;;;;;;;;;;;;;32.02;42.92;101098.69;1889609;76;20097;-64
2021/07/26 06:51:29;;;;;;;;;;;;;;;32.36;42.56;101100.42;1889635;76;20120;-64
2021/07/26 06:53:57;;;;;;;;;;;;;;;32.43;41.64;101095.88;1889674;76;20159;-64
2021/07/26 06:56:25;;;;;;;;;;;;;;;32.50;41.99;101098.14;1889638;76;20116;-64
2021/07/26 06:58:53;;;;;;;;;;;;;;;32.65;41.60;101094.84;1889629;76;20112;-64
2021/07/26 07:01:21;;;;;;;;;;;;;;;32.79;41.40;101097.66;1889659;76;20109;-64
2021/07/26 07:03:49;;;;;;;;;;;;;;;32.84;41.23;101096.55;1889552;76;20104;-65
2021/07/26 07:06:17;;;;;;;;;;;;;;;32.82;41.17;101094.55;1889641;76;20273;-64
2021/07/26 07:08:45;;;;;;;;;;;;;;;33.12;41.33;101098.45;1889650;76;20113;-64
2021/07/26 07:11:17;;;;;;;;;;;;;;;33.26;40.36;101093.41;1889630;76;20124;-64
2021/07/26 07:13:47;;;;;;;;;;;;;;;33.22;40.43;101096.22;1889626;76;20413;-64
2021/07/26 07:16:18;;;;;;;;;;;;;;;33.12;40.78;101086.18;1888912;76;20104;-65
2021/07/26 07:18:50;;;;;;;;;;;;;;;33.14;40.70;101089.55;1889645;76;20108;-64
2021/07/26 07:21:18;;;;;;;;;;;;;;;33.29;40.19;101086.16;1889842;76;20406;-64
2021/07/26 07:23:46;;;;;;;;;;;;;;;33.53;40.29;101092.16;1889638;76;20370;-62
2021/07/26 07:26:15;;;;;;;;;;;;;;;33.84;40.22;101094.41;1889661;76;20104;-62
2021/07/26 07:28:44;;;;;;;;;;;;;;;34.19;39.78;101085.59;1889559;76;20151;-63
2021/07/26 07:31:13;;;;;;;;;;;;;;;34.06;39.51;101089.64;1889632;76;20362;-63
2021/07/26 07:33:41;;;;;;;;;;;;;;;33.85;39.81;101088.75;1889621;76;20117;-62
2021/07/26 07:36:09;;;;;;;;;;;;;;;33.89;39.55;101099.28;1893215;76;20120;-62
2021/07/26 07:38:37;;;;;;;;;;;;;;;34.17;39.63;101099.16;1896164;76;20168;-62
2021/07/26 07:41:05;;;;;;;;;;;;;;;34.35;38.89;101092.56;1896243;76;20124;-62
2021/07/26 07:43:33;;;;;;;;;;;;;;;34.65;38.73;101092.69;1896065;76;20150;-63
2021/07/26 07:46:01;;;;;;;;;;;;;;;34.71;38.47;101084.52;1896131;76;20116;-62
2021/07/26 07:48:29;;;;;;;;;;;;;;;34.94;38.54;101095.00;1896137;76;20147;-62
2021/07/26 07:50:59;;;;;;;;;;;;;;;34.96;38.22;101094.79;1896137;76;20163;-62
2021/07/26 07:53:27;;;;;;;;;;;;;;;34.87;37.87;101089.23;1896117;76;20171;-62
2021/07/26 07:55:55;;;;;;;;;;;;;;;34.86;37.61;101095.73;1896066;76;20171;-62
2021/07/26 07:58:23;;;;;;;;;;;;;;;34.84;37.60;101091.84;1896107;76;20150;-62
2021/07/26 08:00:51;;;;;;;;;;;;;;;34.51;37.64;101096.79;1896141;76;20147;-62
2021/07/26 08:03:20;;;;;;;;;;;;;;;34.10;38.20;101089.54;1896131;76;20394;-62
2021/07/26 08:05:48;;;;;;;;;;;;;;;33.73;38.91;101094.48;1896149;76;20163;-62
2021/07/26 08:08:17;;;;;;;;;;;;;;;33.70;38.81;101102.23;1896047;76;20120;-62
2021/07/26 08:10:45;;;;;;;;;;;;;;;33.66;38.99;101093.61;1896097;76;20104;-62
2021/07/26 08:13:13;;;;;;;;;;;;;;;33.74;39.12;101093.45;1896128;76;20116;-62
2021/07/26 08:15:42;;;;;;;;;;;;;;;33.79;38.87;101092.31;1896136;76;20140;-62
2021/07/26 08:18:10;;;;;;;;;;;;;;;33.78;38.81;101092.52;1895997;76;20124;-62
2021/07/26 08:20:38;;;;;;;;;;;;;;;34.02;38.86;101082.91;1896107;76;20194;-62
2021/07/26 08:23:06;;;;;;;;;;;;;;;34.46;38.51;101088.91;1896219;76;20146;-62
2021/07/26 08:25:34;;;;;;;;;;;;;;;34.64;37.49;101086.88;1896126;76;20147;-62
2021/07/26 08:28:02;;;;;;;;;;;;;;;34.53;37.81;101079.65;1896122;76;20120;-62
2021/07/26 08:30:30;;;;;;;;;;;;;;;34.46;37.93;101080.70;1896100;76;20146;-62
2021/07/26 08:32:59;;;;;;;;;;;;;;;34.55;38.06;101078.08;1896099;76;20167;-62
2021/07/26 08:35:27;;;;;;;;;;;;;;;34.58;37.79;101079.86;1895702;76;20104;-63
2021/07/26 08:37:55;;;;;;;;;;;;;;;34.78;37.48;101074.92;1889547;76;20151;-62
2021/07/26 08:40:24;;;;;;;;;;;;;;;34.98;36.99;101078.47;1897432;75;20118;-61
2021/07/26 08:42:52;;;;;;;;;;;;;;;35.08;36.53;101070.34;1902030;75;20116;-61
2021/07/26 08:45:20;;;;;;;;;;;;;;;35.19;36.23;101065.59;1902334;75;20122;-61
2021/07/26 08:47:49;;;;;;;;;;;;;;;35.41;35.89;101061.22;1890612;76;20189;-61
2021/07/26 08:50:20;;;;;;;;;;;;;;;35.46;35.53;101058.67;1902001;75;20238;-61
2021/07/26 08:52:49;;;;;;;;;;;;;;;35.57;35.15;101064.84;1902348;75;20140;-61
2021/07/26 08:55:17;;;;;;;;;;;;;;;35.59;35.56;101056.41;1902044;75;20352;-63
2021/07/26 08:57:46;;;;;;;;;;;;;;;35.80;35.32;101049.78;1902322;75;20110;-63
2021/07/26 09:00:15;;;;;;;;;;;;;;;35.58;35.48;101047.36;1902072;75;20121;-63
2021/07/26 09:02:44;;;;;;;;;;;;;;;35.40;35.64;101054.08;1902253;75;20392;-63
2021/07/26 09:05:12;;;;;;;;;;;;;;;35.33;35.58;101038.50;1901989;75;20158;-63
2021/07/26 09:07:42;;;;;;;;;;;;;;;35.59;35.23;101044.92;1902323;75;20141;-63
2021/07/26 09:10:23;;;;;;;;;;;;;;;35.66;34.92;101038.88;1902136;75;20366;-63
2021/07/26 09:12:51;;;;;;;;;;;;;;;35.60;34.68;101035.66;1902322;75;20388;-63
2021/07/26 09:15:30;;;;;;;;;;;;;;;35.83;34.79;101037.03;1902096;75;20346;-63
2021/07/26 09:17:59;;;;;;;;;;;;;;;35.87;33.86;101041.83;1902361;75;20110;-63
2021/07/26 09:20:29;;;;;;;;;;;;;;;35.67;34.45;101043.31;1901992;75;20112;-63
2021/07/26 09:22:58;;;;;;;;;;;;;;;35.49;34.66;101039.92;1902325;75;20125;-63
2021/07/26 09:25:29;;;;;;;;;;;;;;;35.50;34.49;101047.06;1901949;75;20112;-64
2021/07/26 09:27:59;;;;;;;;;;;;;;;35.47;34.30;101057.09;1902313;75;20122;-63
2021/07/26 09:30:28;;;;;;;;;;;;;;;34.94;34.56;101055.87;1890539;76;20145;-63
2021/07/26 09:32:56;;;;;;;;;;;;;;;34.68;35.02;101053.98;1902066;75;20104;-63
2021/07/26 09:35:24;;;;;;;;;;;;;;;34.39;35.44;101050.63;1902322;75;20114;-63
2021/07/26 09:37:59;;;;;;;;;;;;;;;34.07;35.99;101044.89;1876421;75;20149;-63
2021/07/26 09:40:32;;;;;;;;;;;;;;;33.74;36.41;101047.56;1866048;77;20178;-63
2021/07/26 09:42:57;;;;;;;;;;;;;;;33.78;36.40;101048.29;1865569;77;20111;-63
2021/07/26 09:45:25;;;;;;;;;;;;;;;33.66;36.46;101045.83;1866027;77;20150;-63
2021/07/26 09:48:01;;;;;;;;;;;;;;;33.40;36.75;101043.81;1866047;77;20149;-63
2021/07/26 09:50:36;;;;;;;;;;;;;;;33.16;37.04;101035.62;1860846;77;20200;-64
2021/07/26 09:53:13;;;;;;;;;;;;;;;32.99;37.25;101041.91;1865431;77;20114;-63
2021/07/26 09:55:42;;;;;;;;;;;;;;;32.79;39.26;101036.31;1866120;77;20115;-63
2021/07/26 09:58:11;;;;;;;;;;;;;;;32.22;41.40;101036.27;1866045;77;20162;-63
2021/07/26 10:00:40;;;;;;;;;;;;;;;31.74;43.55;101031.36;1866186;77;20181;-64
2021/07/26 10:03:08;;;;;;;;;;;;;;;30.88;49.08;101030.17;1866067;77;20126;-64
2021/07/26 10:05:36;;;;;;;;;;;;;;;29.99;54.12;101036.17;1866249;77;20118;-63
2021/07/26 10:08:05;;;;;;;;;;;;;;;29.35;55.99;101026.34;1866119;77;20126;-63
2021/07/26 10:10:34;;;;;;;;;;;;;;;29.10;56.13;101020.64;1866138;77;20434;-63
2021/07/26 10:13:02;;;;;;;;;;;;;;;28.97;55.88;101017.13;1866097;77;20434;-63
2021/07/26 10:15:36;;;;;;;;;;;;;;;28.99;55.61;101024.05;1866073;77;20400;-65
2021/07/26 10:18:00;;;;;;;;;;;;;;;29.20;53.82;101015.91;1865584;77;20150;-64
2021/07/26 10:20:29;;;;;;;;;;;;;;;29.43;52.17;101014.59;1866159;77;20149;-64
2021/07/26 10:23:08;;;;;;;;;;;;;;;29.81;51.83;101016.13;1866122;77;20118;-63
2021/07/26 10:25:40;;;;;;;;;;;;;;;29.99;49.38;101012.60;1866183;77;20385;-63
2021/07/26 10:28:15;;;;;;;;;;;;;;;30.15;47.64;101008.06;1866108;77;20146;-64
2021/07/26 10:30:43;;;;;;;;;;;;;;;30.22;47.05;101004.95;1866233;77;20106;-63
2021/07/26 10:33:11;;;;;;;;;;;;;;;30.37;46.56;101001.78;1866147;77;20119;-63
2021/07/26 10:35:49;;;;;;;;;;;;;;;30.57;46.31;101002.63;1866153;77;20149;-63
2021/07/26 10:38:18;;;;;;;;;;;;;;;30.81;45.45;100999.33;1886426;76;20150;-63
2021/07/26 10:40:46;;;;;;;;;;;;;;;30.98;44.47;100999.48;1897057;75;20153;-63
2021/07/26 10:43:16;;;;;;;;;;;;;;;31.12;43.15;101004.09;1894595;76;20114;-63
2021/07/26 10:45:47;;;;;;;;;;;;;;;31.24;43.23;101006.32;1894609;76;20149;-63
2021/07/26 10:48:24;;;;;;;;;;;;;;;31.38;43.62;101004.09;1894615;75;20148;-63
2021/07/26 10:50:53;;;;;;;;;;;;;;;31.55;43.43;101000.14;1894585;76;20144;-65
2021/07/26 10:53:28;;;;;;;;;;;;;;;31.79;42.03;100998.09;1894676;76;20181;-64
2021/07/26 10:56:03;;;;;;;;;;;;;;;32.08;41.09;100995.80;1887183;75;20114;-63
2021/07/26 10:58:42;;;;;;;;;;;;;;;32.34;40.33;100998.43;1894585;76;20123;-63
2021/07/26 11:01:23;;;;;;;;;;;;;;;32.45;40.47;100994.33;1894627;76;20162;-63
2021/07/26 11:03:52;;;;;;;;;;;;;;;32.45;39.99;100992.44;1894595;76;20138;-63
2021/07/26 11:06:40;;;;;;;;;;;;;;;32.34;39.61;100992.15;1894606;76;20142;-63
2021/07/26 11:09:21;;;;;;;;;;;;;;;32.30;39.57;100984.36;1894830;76;20102;-63
2021/07/26 11:11:50;;;;;;;;;;;;;;;32.23;39.20;100987.55;1894525;76;20141;-64
2021/07/26 11:14:18;;;;;;;;;;;;;;;32.26;38.19;100977.62;1894699;76;20181;-64
2021/07/26 11:16:58;;;;;;;;;;;;;;;32.45;39.16;100980.70;1894618;76;20118;-63
2021/07/26 11:19:52;;;;;;;;;;;;;;;32.61;38.82;100972.25;1894560;76;20115;-63
2021/07/26 11:22:21;;;;;;;;;;;;;;;32.70;38.00;100965.60;1893061;75;20118;-64
2021/07/26 11:24:53;;;;;;;;;;;;;;;32.74;38.25;100961.09;1894678;76;20114;-63
2021/07/26 11:27:25;;;;;;;;;;;;;;;32.66;37.05;100962.09;1894761;76;20200;-63
2021/07/26 11:29:54;;;;;;;;;;;;;;;32.57;38.34;100962.73;1894690;76;20114;-63
2021/07/26 11:32:23;;;;;;;;;;;;;;;32.37;36.29;100961.76;1894582;76;20142;-63
2021/07/26 11:34:58;;;;;;;;;;;;;;;32.11;37.00;100965.95;1894491;76;20162;-64
2021/07/26 11:37:30;;;;;;;;;;;;;;;31.92;37.15;100968.27;1895794;75;20131;-63
2021/07/26 11:39:58;;;;;;;;;;;;;;;31.76;37.97;100971.25;1902368;75;20414;-63
2021/07/26 11:42:27;;;;;;;;;;;;;;;31.65;37.43;100967.68;1902388;75;20149;-64
2021/07/26 11:44:56;;;;;;;;;;;;;;;31.59;37.12;100969.83;1902398;75;20091;-63
2021/07/26 11:47:40;;;;;;;;;;;;;;;31.51;37.54;100956.66;1902306;75;20122;-63
2021/07/26 11:50:09;;;;;;;;;;;;;;;31.51;37.45;100954.47;1902375;75;20113;-63
2021/07/26 11:52:38;;;;;;;;;;;;;;;31.50;37.46;100957.72;1902395;75;20392;-63
2021/07/26 11:55:12;;;;;;;;;;;;;;;31.50;37.35;100952.27;1902378;75;20391;-63
2021/07/26 11:57:59;;;;;;;;;;;;;;;31.48;36.80;100950.23;1902320;75;20152;-64
2021/07/26 12:00:28;;;;;;;;;;;;;;;31.46;36.99;100935.95;1902369;75;20110;-63
2021/07/26 12:02:58;;;;;;;;;;;;;;;31.45;36.84;100947.89;1902451;75;20118;-63
2021/07/26 12:05:29;;;;;;;;;;;;;;;31.41;36.28;100937.07;1902416;75;20102;-63
2021/07/26 12:07:59;;;;;;;;;;;;;;;31.38;36.33;100937.45;1902359;75;20114;-63
2021/07/26 12:10:28;;;;;;;;;;;;;;;31.33;36.11;100933.09;1902327;75;20098;-63
2021/07/26 12:12:57;;;;;;;;;;;;;;;31.31;36.67;100931.08;1902332;75;20106;-63
2021/07/26 12:15:26;;;;;;;;;;;;;;;31.28;36.50;100933.68;1902955;75;20126;-63
2021/07/26 12:18:01;;;;;;;;;;;;;;;31.26;36.47;100932.17;1901497;75;20114;-63
2021/07/26 12:20:29;;;;;;;;;;;;;;;31.22;36.66;100939.86;1902362;75;20110;-63
2021/07/26 12:22:57;;;;;;;;;;;;;;;31.19;36.27;100945.71;1902404;75;20260;-63
2021/07/26 12:25:25;;;;;;;;;;;;;;;31.15;36.58;100943.88;1902370;75;20117;-63
2021/07/26 12:27:59;;;;;;;;;;;;;;;31.12;37.12;100946.14;1902331;75;20144;-63
2021/07/26 12:30:36;;;;;;;;;;;;;;;31.06;36.85;100942.80;1902364;75;20118;-63
2021/07/26 12:33:04;;;;;;;;;;;;;;;30.98;36.93;100947.30;1902315;75;20114;-64
2021/07/26 12:35:32;;;;;;;;;;;;;;;30.92;37.06;100954.03;1902341;75;20150;-63
2021/07/26 12:38:00;;;;;;;;;;;;;;;30.87;36.58;100956.44;1901164;74;20114;-63
2021/07/26 12:40:29;;;;;;;;;;;;;;;30.83;36.17;100951.05;1894530;76;20145;-63
2021/07/26 12:43:10;;;;;;;;;;;;;;;30.79;36.50;100950.06;1894548;76;20102;-63
2021/07/26 12:45:38;;;;;;;;;;;;;;;30.74;36.47;100947.05;1894434;76;20377;-61
2021/07/26 12:48:20;;;;;;;;;;;;;;;30.69;36.83;100949.52;1894574;76;20208;-61